Valparaiso, Nebraska
Current Conditions -  °F | °C
As of 6:15 PM on Sunday 25 Jan 2015 (Local Time) from KAHQ Reporting Station
Overcast Overcast  
Wind Chill: 36°   Ceiling: 3300
Heat Index: 36°   Visibility: 10mi
Dew Point: 31°   Wind: 3mph
Humidity: 80%   Direction: 330°NNW
Pressure: 30.09"   Gusts: NA
Location:  41.08°N, 96.83°W
Report Text: KAHQ 260015Z AUTO 33003KT 10SM OVC033 02/M01 A3009 RMK AO2 T00231008
Loading
Personal Weather Stations






























Interactive Weather Map New forecast layout! Learn more

10-Day Weather Forecast

Advertisements
Track Severe Weather on mobile